LQTZ/TZL METAR and TAF weather

Enter ICAO airport designator
Station Type Date Time Source
LQTZ METAR 2019/07/20 05:00 UTC NOAA

LQTZ 200500Z VRB01KT 1600 R09/0375U BR SCT002 15/14 Q1018


Station Type Date Time Source
LQTZ Decoded METAR 2019/07/20 05:00 UTC NOAA

Tuzla, Bosnia and Herzegovina (LQTZ) 44-33N 018-42E
Jul 20, 2019 - 01:00 AM EDT / 2019.07.20 0500 UTC
Wind: Variable at 1 MPH (1 KT):0
Visibility: less than 1 mile:0
Sky conditions: partly cloudy
Weather: mist
Temperature: 59 F (15 C)
Dew Point: 57 F (14 C)
Relative Humidity: 93%
Pressure (altimeter): 30.06 in. Hg (1018 hPa)
ob: LQTZ 200500Z VRB01KT 1600 R09/0375U BR SCT002 15/14 Q1018
cycle: 5

Station Type Date Time Source
LQTZ TAF 2019/07/20 06:08 UTC NOAA

TAF LQTZ 200500Z 2006/2106 10005KT CAVOK TX31/2014Z TN14/2103Z PROB30
TEMPO 2102/2105 3000 BR

Example: see airport list